Time;durP1;ratioP1;P1;durP2;ratioP2;P2;SDS_P1;SDS_P2;PMS_P1;PMS_P2;Temp;Humidity;BMP_temperature;BMP_pressure;BME280_temperature;BME280_humidity;BME280_pressure;Samples;Min_cycle;Max_cycle;Signal;HPM_P1;HPM_P2
2023/06/25 00:02:02;;;;;;;13.57;8.47;;;18.60;99.90;;;;;;5015938;28;20392;-67
2023/06/25 00:04:28;;;;;;;13.67;7.83;;;18.60;99.90;;;;;;4998134;28;20046;-66
2023/06/25 00:06:53;;;;;;;14.07;7.70;;;18.50;99.90;;;;;;4998177;28;20045;-67
2023/06/25 00:09:19;;;;;;;13.23;7.47;;;18.50;99.90;;;;;;5015593;28;20046;-67
2023/06/25 00:11:45;;;;;;;12.17;7.57;;;18.60;99.90;;;;;;5015935;28;20042;-67
2023/06/25 00:14:11;;;;;;;15.60;7.57;;;18.60;99.90;;;;;;5016045;28;20485;-66
2023/06/25 00:16:37;;;;;;;13.03;6.47;;;18.60;99.90;;;;;;4998398;28;20048;-66
2023/06/25 00:19:03;;;;;;;11.03;7.10;;;18.50;99.90;;;;;;5015719;28;20312;-66
2023/06/25 00:21:29;;;;;;;12.00;6.75;;;18.60;99.90;;;;;;5015864;28;20106;-66
2023/06/25 00:23:55;;;;;;;12.75;7.07;;;18.60;99.90;;;;;;4982055;28;20042;-67
2023/06/25 00:26:20;;;;;;;12.53;7.20;;;18.50;99.90;;;;;;4998257;28;20394;-67
2023/06/25 00:28:46;;;;;;;12.17;6.67;;;18.60;99.90;;;;;;4982322;28;20042;-67
2023/06/25 00:31:12;;;;;;;16.20;7.80;;;18.50;99.90;;;;;;4998094;28;20041;-67
2023/06/25 00:33:41;;;;;;;13.75;7.72;;;18.50;99.90;;;;;;4998336;28;20049;-68
2023/06/25 00:36:06;;;;;;;12.30;6.95;;;18.50;99.90;;;;;;5015406;28;20038;-66
2023/06/25 00:38:37;;;;;;;13.77;6.97;;;18.50;99.90;;;;;;5015458;28;20402;-66
2023/06/25 00:41:04;;;;;;;12.05;7.28;;;18.50;99.90;;;;;;5016146;28;20414;-67
2023/06/25 00:43:29;;;;;;;12.02;7.03;;;18.40;99.90;;;;;;5015307;28;20136;-66
2023/06/25 00:45:57;;;;;;;11.10;7.03;;;18.40;99.90;;;;;;4998125;28;20133;-66
2023/06/25 00:48:23;;;;;;;11.68;6.50;;;18.40;99.90;;;;;;4998197;28;20136;-67
2023/06/25 00:50:49;;;;;;;14.37;7.83;;;18.40;99.90;;;;;;5015157;28;20050;-67
2023/06/25 00:53:16;;;;;;;14.23;7.40;;;18.30;99.90;;;;;;5015678;28;20054;-66
2023/06/25 00:55:42;;;;;;;15.55;8.40;;;18.30;99.90;;;;;;5015128;28;20053;-66
2023/06/25 00:58:07;;;;;;;13.27;7.40;;;18.30;99.90;;;;;;5014795;28;20054;-66
2023/06/25 01:00:34;;;;;;;12.77;7.10;;;18.30;99.90;;;;;;5015042;28;20116;-66
2023/06/25 01:03:04;;;;;;;12.30;7.40;;;18.30;99.90;;;;;;5014911;28;20053;-67
2023/06/25 01:05:52;;;;;;;15.00;7.68;;;18.20;99.90;;;;;;4997336;28;20064;-66
2023/06/25 01:08:21;;;;;;;14.15;7.78;;;18.20;99.90;;;;;;5015884;28;20050;-67
2023/06/25 01:10:47;;;;;;;15.63;8.27;;;18.10;99.90;;;;;;4981302;28;20053;-65
2023/06/25 01:13:12;;;;;;;13.90;8.20;;;18.10;99.90;;;;;;5014407;28;20042;-66
2023/06/25 01:15:38;;;;;;;15.47;7.80;;;18.10;99.90;;;;;;4997409;28;20056;-66
2023/06/25 01:18:04;;;;;;;12.80;7.83;;;18.00;99.90;;;;;;4981304;28;20041;-67
2023/06/25 01:20:30;;;;;;;15.82;7.80;;;18.00;99.90;;;;;;4965117;28;20136;-66
2023/06/25 01:22:56;;;;;;;14.57;8.43;;;18.00;99.90;;;;;;4981113;28;20134;-66
2023/06/25 01:25:23;;;;;;;15.63;8.60;;;18.00;99.90;;;;;;4997216;28;20052;-66
2023/06/25 01:27:51;;;;;;;14.02;8.35;;;18.00;99.90;;;;;;5014548;28;20053;-65
2023/06/25 01:30:20;;;;;;;15.27;8.60;;;18.00;99.90;;;;;;4997351;28;20038;-65
2023/06/25 01:32:46;;;;;;;18.30;8.75;;;18.00;99.90;;;;;;4997360;28;20420;-66
2023/06/25 01:35:13;;;;;;;13.83;8.23;;;18.00;99.90;;;;;;4997055;28;20128;-66
2023/06/25 01:37:39;;;;;;;14.48;8.35;;;17.90;99.90;;;;;;5014353;28;20061;-66
2023/06/25 01:40:07;;;;;;;12.20;7.97;;;17.90;99.90;;;;;;5014328;28;20041;-67
2023/06/25 01:42:34;;;;;;;16.73;8.40;;;17.90;99.90;;;;;;4997044;28;20049;-66
2023/06/25 01:45:00;;;;;;;;;;;17.90;99.90;;;;;;4997181;28;20050;-67
2023/06/25 01:47:26;;;;;;;14.43;8.10;;;17.90;99.90;;;;;;5014196;28;19922;-66
2023/06/25 01:49:51;;;;;;;17.50;9.10;;;17.90;99.90;;;;;;5014021;28;20096;-66
2023/06/25 01:52:17;;;;;;;18.20;9.23;;;17.90;99.90;;;;;;5014114;28;20041;-66
2023/06/25 01:54:43;;;;;;;16.70;9.30;;;17.90;99.90;;;;;;4996523;28;20041;-66
2023/06/25 01:57:08;;;;;;;20.83;9.30;;;17.80;99.90;;;;;;5014064;28;20512;-67
2023/06/25 01:59:34;;;;;;;17.70;9.10;;;17.80;99.90;;;;;;4996468;28;20050;-66
2023/06/25 02:02:01;;;;;;;18.93;9.33;;;17.80;99.90;;;;;;4981267;28;20145;-66
2023/06/25 02:04:27;;;;;;;;;;;17.70;99.90;;;;;;5015089;28;20049;-66
2023/06/25 02:06:53;;;;;;;15.95;9.52;;;17.70;99.90;;;;;;5014065;28;19921;-67
2023/06/25 02:09:19;;;;;;;19.80;10.27;;;17.70;99.90;;;;;;5014599;28;20065;-67
2023/06/25 02:11:46;;;;;;;17.30;10.10;;;17.70;99.90;;;;;;4996657;28;20046;-67
2023/06/25 02:14:12;;;;;;;20.33;10.48;;;17.70;99.90;;;;;;5013728;28;20053;-67
2023/06/25 02:16:38;;;;;;;17.10;10.67;;;17.70;99.90;;;;;;5014132;28;20095;-67
2023/06/25 02:19:04;;;;;;;23.13;11.13;;;17.70;99.90;;;;;;5013818;28;20046;-67
2023/06/25 02:21:29;;;;;;;21.27;11.03;;;17.70;99.90;;;;;;4997118;28;20057;-67
2023/06/25 02:23:55;;;;;;;20.30;11.03;;;17.60;99.90;;;;;;4996779;28;20071;-67
2023/06/25 02:26:21;;;;;;;18.67;11.53;;;17.60;99.90;;;;;;5012457;28;20481;-67
2023/06/25 02:28:47;;;;;;;20.67;11.00;;;17.60;99.90;;;;;;5013632;28;20049;-67
2023/06/25 02:31:12;;;;;;;21.70;11.17;;;17.60;99.90;;;;;;5013873;28;20379;-67
2023/06/25 02:33:38;;;;;;;18.63;11.13;;;17.60;99.90;;;;;;4995914;28;20486;-66
2023/06/25 02:36:04;;;;;;;22.40;11.60;;;17.60;99.90;;;;;;4980440;28;20118;-67
2023/06/25 02:38:30;;;;;;;20.57;11.70;;;17.60;99.90;;;;;;4979872;28;20545;-67
2023/06/25 02:40:55;;;;;;;22.60;11.37;;;17.60;99.90;;;;;;5014389;28;20069;-67
2023/06/25 02:43:21;;;;;;;21.97;11.87;;;17.50;99.90;;;;;;5013713;28;20482;-67
2023/06/25 02:45:47;;;;;;;20.40;11.40;;;17.50;99.90;;;;;;5013566;28;20485;-65
2023/06/25 02:48:13;;;;;;;21.43;12.20;;;17.50;99.90;;;;;;5013879;28;20050;-69
2023/06/25 02:50:39;;;;;;;21.00;12.00;;;17.50;99.90;;;;;;5013544;28;20548;-66
2023/06/25 02:53:04;;;;;;;23.87;12.93;;;17.50;99.90;;;;;;5013345;28;20100;-66
2023/06/25 02:55:30;;;;;;;24.00;12.80;;;17.50;99.90;;;;;;4995729;28;20046;-66
2023/06/25 02:57:56;;;;;;;21.13;12.53;;;17.50;99.90;;;;;;4995746;28;20046;-66
2023/06/25 03:00:22;;;;;;;20.40;12.20;;;17.50;99.90;;;;;;5013761;28;20061;-67
2023/06/25 03:02:48;;;;;;;24.80;12.77;;;17.50;99.90;;;;;;4979903;28;20113;-66
2023/06/25 03:05:14;;;;;;;19.73;12.03;;;17.50;99.90;;;;;;5013261;28;20042;-66
2023/06/25 03:07:57;;;;;;;21.50;11.90;;;17.40;99.90;;;;;;4995856;28;20057;-66
2023/06/25 03:10:25;;;;;;;21.27;12.35;;;17.40;99.90;;;;;;4980199;28;20104;-66
2023/06/25 03:12:51;;;;;;;23.30;12.90;;;17.40;99.90;;;;;;4980042;28;20108;-67
2023/06/25 03:15:19;;;;;;;20.17;12.63;;;17.40;99.90;;;;;;4979780;28;20376;-68
2023/06/25 03:17:46;;;;;;;21.65;12.77;;;;;;;;;;5013242;28;20050;-66
2023/06/25 03:20:15;;;;;;;25.08;12.60;;;;;;;;;;5013302;28;20124;-67
2023/06/25 03:22:42;;;;;;;23.30;12.63;;;;;;;;;;5013155;28;20096;-66
2023/06/25 03:25:10;;;;;;;21.75;12.18;;;;;;;;;;4995689;28;20049;-66
2023/06/25 03:27:38;;;;;;;21.60;12.35;;;;;;;;;;4995839;28;20104;-67
2023/06/25 03:30:05;;;;;;;23.23;12.10;;;;;;;;;;4996440;28;20042;-66
2023/06/25 03:32:32;;;;;;;20.73;11.65;;;;;;;;;;5012642;28;20489;-68
2023/06/25 03:34:59;;;;;;;21.42;11.90;;;;;;;;;;5013082;28;20446;-66
2023/06/25 03:37:25;;;;;;;20.13;12.10;;;;;;;;;;4997289;28;20053;-67
2023/06/25 03:39:51;;;;;;;22.92;11.80;;;17.50;99.90;;;;;;4999860;28;20046;-66
2023/06/25 03:42:17;;;;;;;19.25;11.30;;;17.70;99.90;;;;;;5016842;28;20100;-67
2023/06/25 03:44:54;;;;;;;19.10;10.97;;;17.60;99.90;;;;;;5016654;28;20046;-68
2023/06/25 03:47:20;;;;;;;18.48;11.10;;;17.70;99.90;;;;;;5016804;28;20049;-72
2023/06/25 03:49:46;;;;;;;16.40;10.57;;;18.10;99.90;;;;;;5016399;28;20176;-67
2023/06/25 03:52:12;;;;;;;20.00;11.10;;;17.80;99.90;;;;;;4998854;28;20091;-67
2023/06/25 03:54:38;;;;;;;19.70;10.87;;;17.90;99.90;;;;;;4998491;28;20305;-67
2023/06/25 03:57:04;;;;;;;19.70;10.97;;;17.90;99.90;;;;;;5016825;28;20046;-67
2023/06/25 03:59:31;;;;;;;20.23;11.32;;;18.00;99.90;;;;;;4998462;28;20054;-67
2023/06/25 04:01:57;;;;;;;19.38;10.93;;;18.00;99.90;;;;;;4999147;28;20058;-67
2023/06/25 04:04:23;;;;;;;22.52;11.38;;;18.00;99.90;;;;;;5015829;28;20041;-68
2023/06/25 04:06:48;;;;;;;20.50;11.50;;;18.00;99.90;;;;;;4982717;28;20088;-66
2023/06/25 04:09:14;;;;;;;21.07;11.30;;;18.00;99.90;;;;;;4982284;28;20501;-66
2023/06/25 04:11:40;;;;;;;17.73;10.70;;;18.00;99.90;;;;;;5015917;28;20057;-66
2023/06/25 04:14:05;;;;;;;18.33;11.33;;;18.00;99.90;;;;;;4998557;28;20050;-66
2023/06/25 04:16:31;;;;;;;20.00;11.27;;;18.10;99.90;;;;;;5016443;28;20038;-66
2023/06/25 04:18:57;;;;;;;19.07;11.50;;;18.10;99.90;;;;;;5015720;28;20034;-67
2023/06/25 04:21:22;;;;;;;21.00;10.97;;;18.20;99.90;;;;;;4998335;28;20046;-67
2023/06/25 04:23:48;;;;;;;18.80;11.47;;;18.20;99.90;;;;;;4982742;28;20042;-67
2023/06/25 04:26:14;;;;;;;19.23;11.70;;;18.20;99.90;;;;;;5015687;28;20046;-67
2023/06/25 04:28:40;;;;;;;17.70;10.90;;;18.30;99.90;;;;;;4998330;28;20053;-66
2023/06/25 04:31:06;;;;;;;20.50;11.32;;;18.30;99.90;;;;;;4981917;28;20041;-66
2023/06/25 04:33:33;;;;;;;15.73;10.23;;;18.30;99.90;;;;;;4998390;28;20049;-66
2023/06/25 04:35:59;;;;;;;24.65;10.85;;;18.40;99.90;;;;;;5015876;28;20080;-66
2023/06/25 04:38:24;;;;;;;20.20;11.27;;;18.40;99.90;;;;;;5016038;28;20049;-65
2023/06/25 04:40:50;;;;;;;20.07;11.33;;;18.50;99.90;;;;;;4997924;28;20371;-65
2023/06/25 04:43:16;;;;;;;21.07;12.10;;;18.50;99.90;;;;;;4982032;28;20093;-66
2023/06/25 04:45:41;;;;;;;20.90;11.00;;;18.60;99.90;;;;;;4998880;28;20343;-66
2023/06/25 04:48:07;;;;;;;22.20;11.37;;;18.60;99.90;;;;;;4981255;28;20050;-66
2023/06/25 04:50:33;;;;;;;17.37;11.00;;;18.60;99.90;;;;;;5014877;28;20520;-67
2023/06/25 04:52:59;;;;;;;21.63;12.17;;;18.70;99.90;;;;;;4982449;28;20236;-66
2023/06/25 04:55:24;;;;;;;24.57;11.90;;;18.70;99.90;;;;;;5015442;28;20057;-67
2023/06/25 04:57:51;;;;;;;20.07;12.57;;;18.80;99.90;;;;;;4965133;28;20054;-67
2023/06/25 05:00:17;;;;;;;20.42;11.23;;;18.80;99.90;;;;;;4997692;28;20053;-67
2023/06/25 05:02:42;;;;;;;16.70;11.00;;;18.80;99.90;;;;;;4997727;28;20041;-66
2023/06/25 05:05:08;;;;;;;19.33;11.30;;;18.90;99.90;;;;;;4997675;28;20093;-65
2023/06/25 05:07:34;;;;;;;19.03;11.17;;;18.90;99.90;;;;;;5014904;28;20046;-66
2023/06/25 05:10:00;;;;;;;19.63;11.87;;;19.00;99.90;;;;;;5015745;28;20064;-65
2023/06/25 05:12:25;;;;;;;18.57;11.47;;;19.00;99.90;;;;;;4981307;28;20453;-67
2023/06/25 05:14:51;;;;;;;20.13;11.97;;;19.10;99.90;;;;;;5014753;28;20052;-67
2023/06/25 05:17:17;;;;;;;20.77;12.10;;;19.10;99.90;;;;;;4997302;28;20042;-66
2023/06/25 05:19:44;;;;;;;20.63;11.50;;;19.10;99.90;;;;;;4996792;28;20038;-66
2023/06/25 05:22:09;;;;;;;19.17;12.10;;;19.20;99.90;;;;;;5014583;28;20058;-66
2023/06/25 05:24:35;;;;;;;18.67;11.70;;;19.20;99.90;;;;;;4981057;28;20056;-67
2023/06/25 05:27:01;;;;;;;20.43;10.87;;;19.20;99.90;;;;;;4980899;28;20564;-66
2023/06/25 05:29:27;;;;;;;22.40;12.00;;;19.30;99.90;;;;;;5014571;28;20076;-66
2023/06/25 05:31:55;;;;;;;20.63;12.63;;;19.40;99.90;;;;;;5014756;28;20053;-67
2023/06/25 05:34:21;;;;;;;19.20;11.98;;;19.40;99.90;;;;;;5014092;28;20479;-66
2023/06/25 05:36:47;;;;;;;22.87;12.33;;;19.40;99.90;;;;;;4996961;28;20045;-67
2023/06/25 05:39:12;;;;;;;23.53;11.87;;;19.50;99.90;;;;;;4997288;28;20292;-66
2023/06/25 05:41:41;;;;;;;20.17;12.57;;;19.50;99.90;;;;;;5014545;28;20034;-66
2023/06/25 05:44:06;;;;;;;19.95;12.60;;;19.60;99.90;;;;;;5014160;28;20037;-68
2023/06/25 05:46:32;;;;;;;18.43;12.67;;;19.60;99.90;;;;;;5014219;28;20049;-67
2023/06/25 05:48:58;;;;;;;22.77;13.47;;;19.60;99.90;;;;;;4996693;28;20123;-66
2023/06/25 05:51:24;;;;;;;21.83;12.97;;;19.70;99.90;;;;;;4996581;28;20048;-67
2023/06/25 05:53:50;;;;;;;22.47;13.30;;;19.70;99.90;;;;;;5014017;28;20056;-67
2023/06/25 05:56:16;;;;;;;21.38;12.85;;;19.80;99.90;;;;;;5014490;28;20057;-68
2023/06/25 05:58:43;;;;;;;21.60;13.70;;;19.80;99.90;;;;;;4996733;28;20050;-67
2023/06/25 06:01:08;;;;;;;21.77;13.23;;;19.90;99.90;;;;;;5013806;28;20085;-66
2023/06/25 06:03:34;;;;;;;22.37;13.63;;;20.00;99.90;;;;;;4980497;28;20092;-66
2023/06/25 06:06:00;;;;;;;24.33;13.90;;;20.00;99.90;;;;;;5013917;28;20042;-66
2023/06/25 06:08:26;;;;;;;22.20;13.80;;;20.00;99.90;;;;;;4997330;28;20045;-66
2023/06/25 06:10:52;;;;;;;25.37;13.90;;;20.00;99.90;;;;;;4996294;28;20645;-67
2023/06/25 06:13:18;;;;;;;23.30;14.73;;;20.10;99.90;;;;;;5014359;28;20042;-66
2023/06/25 06:15:44;;;;;;;23.48;14.05;;;20.20;99.90;;;;;;4980304;28;20049;-68
2023/06/25 06:18:09;;;;;;;23.97;14.80;;;20.20;99.90;;;;;;4965025;28;20469;-67
2023/06/25 06:20:35;;;;;;;25.50;15.00;;;20.20;99.90;;;;;;5013766;28;20045;-67
2023/06/25 06:23:03;;;;;;;22.20;15.10;;;20.30;99.90;;;;;;4980096;28;20046;-67
2023/06/25 06:25:29;;;;;;;24.58;15.00;;;20.30;99.90;;;;;;4980472;28;20046;-67
2023/06/25 06:27:55;;;;;;;20.90;14.43;;;20.40;99.90;;;;;;4980167;28;20504;-68
2023/06/25 06:30:21;;;;;;;23.67;14.73;;;20.50;99.90;;;;;;5013547;28;20041;-67
2023/06/25 06:32:47;;;;;;;22.50;14.93;;;20.50;99.90;;;;;;4996399;28;20598;-67
2023/06/25 06:35:12;;;;;;;24.63;15.80;;;20.70;99.90;;;;;;4997109;28;20038;-67
2023/06/25 06:37:38;;;;;;;21.73;15.13;;;20.80;99.90;;;;;;4996119;28;20477;-67
2023/06/25 06:40:05;;;;;;;23.07;14.80;;;20.80;99.90;;;;;;5013578;28;20034;-67
2023/06/25 06:42:30;;;;;;;24.50;15.35;;;20.90;99.90;;;;;;4996140;28;20116;-68
2023/06/25 06:44:56;;;;;;;21.77;15.67;;;21.00;99.90;;;;;;4980383;28;20054;-67
2023/06/25 06:47:22;;;;;;;20.57;15.50;;;21.10;99.90;;;;;;4995926;28;20049;-65
2023/06/25 06:49:47;;;;;;;21.43;15.63;;;21.20;99.90;;;;;;5013379;28;20124;-66
2023/06/25 06:52:15;;;;;;;21.57;14.83;;;21.30;99.90;;;;;;5013746;28;20042;-67
2023/06/25 06:54:41;;;;;;;22.17;15.13;;;21.40;99.90;;;;;;5013874;28;20038;-67
2023/06/25 06:57:06;;;;;;;21.53;14.97;;;21.50;99.90;;;;;;4995777;28;20539;-67
2023/06/25 06:59:32;;;;;;;21.27;14.57;;;21.60;99.90;;;;;;4995607;28;20532;-66
2023/06/25 07:01:58;;;;;;;21.73;15.30;;;21.70;99.90;;;;;;5013214;28;20058;-67
2023/06/25 07:04:23;;;;;;;25.10;15.27;;;21.80;99.90;;;;;;4995818;28;20038;-67
2023/06/25 07:06:49;;;;;;;20.77;15.23;;;22.00;99.90;;;;;;5013128;28;20057;-66
2023/06/25 07:09:22;;;;;;;20.00;15.03;;;22.00;99.90;;;;;;4995732;28;20053;-66
2023/06/25 07:11:48;;;;;;;23.30;15.60;;;22.10;99.90;;;;;;4980028;28;20517;-67
2023/06/25 07:14:13;;;;;;;19.07;14.80;;;22.20;99.90;;;;;;4999488;28;20147;-65
2023/06/25 07:16:41;;;;;;;21.63;14.90;;;22.30;99.90;;;;;;4999472;28;20053;-66
2023/06/25 07:19:08;;;;;;;21.63;15.10;;;22.40;99.90;;;;;;5000090;28;20095;-66
2023/06/25 07:21:34;;;;;;;22.30;15.27;;;22.50;99.90;;;;;;4983103;28;20107;-66
2023/06/25 07:23:59;;;;;;;23.98;16.15;;;22.60;99.90;;;;;;4983211;28;20112;-66
2023/06/25 07:26:27;;;;;;;23.53;14.83;;;22.60;99.90;;;;;;5017005;28;20421;-66
2023/06/25 07:28:53;;;;;;;23.85;14.82;;;22.70;99.90;;;;;;5016650;28;20293;-66
2023/06/25 07:31:18;;;;;;;23.08;14.43;;;22.90;99.90;;;;;;4999351;28;20054;-66
2023/06/25 07:33:44;;;;;;;21.30;14.40;;;23.00;99.90;;;;;;4999313;28;20069;-67
2023/06/25 07:36:10;;;;;;;23.47;14.97;;;23.10;99.90;;;;;;4983457;28;20046;-66
2023/06/25 07:38:36;;;;;;;19.80;13.57;;;23.20;99.90;;;;;;4999074;28;20056;-67
2023/06/25 07:41:01;;;;;;;21.77;14.77;;;23.30;99.90;;;;;;4998975;28;20061;-67
2023/06/25 07:43:27;;;;;;;20.67;13.77;;;23.40;99.90;;;;;;5016142;28;20133;-67
2023/06/25 07:45:53;;;;;;;18.30;14.33;;;23.50;99.90;;;;;;5016100;28;20052;-66
2023/06/25 07:48:19;;;;;;;23.57;14.83;;;23.60;99.90;;;;;;4983373;28;20636;-65
2023/06/25 07:50:44;;;;;;;19.73;13.85;;;23.70;99.90;;;;;;4983100;28;20434;-66
2023/06/25 07:53:10;;;;;;;19.70;13.27;;;23.80;99.90;;;;;;5015909;28;20125;-68
2023/06/25 07:55:41;;;;;;;21.67;13.60;;;23.80;99.90;;;;;;4998486;28;20046;-67
2023/06/25 07:58:07;;;;;;;17.77;12.57;;;23.90;99.90;;;;;;4998696;28;20054;-67
2023/06/25 08:00:34;;;;;;;16.38;10.95;;;24.10;99.90;;;;;;4998822;28;20481;-66
2023/06/25 08:03:00;;;;;;;;;;;24.30;99.90;;;;;;4982595;28;20468;-67
2023/06/25 08:05:26;;;;;;;16.98;10.45;;;24.30;99.90;;;;;;5015718;28;19921;-66
2023/06/25 08:07:51;;;;;;;13.63;9.67;;;24.40;99.90;;;;;;5016056;28;20069;-67
2023/06/25 08:10:17;;;;;;;15.47;9.90;;;24.50;99.90;;;;;;4998403;28;20852;-67
2023/06/25 08:12:43;;;;;;;15.63;10.87;;;24.70;99.90;;;;;;4982080;28;20478;-67
2023/06/25 08:15:09;;;;;;;13.05;8.75;;;24.70;99.90;;;;;;5015694;28;20184;-67
2023/06/25 08:17:35;;;;;;;15.95;9.85;;;24.80;99.90;;;;;;5015624;28;20073;-68
2023/06/25 08:20:00;;;;;;;19.30;10.73;;;24.90;99.90;;;;;;5015849;28;20524;-68
2023/06/25 08:22:26;;;;;;;15.83;11.07;;;25.00;99.90;;;;;;5015629;28;20050;-66
2023/06/25 08:24:53;;;;;;;15.07;9.18;;;25.10;99.90;;;;;;5015467;28;20312;-68
2023/06/25 08:27:19;;;;;;;13.55;8.05;;;25.20;99.90;;;;;;5015399;28;20057;-67
2023/06/25 08:29:44;;;;;;;11.77;7.37;;;25.30;99.90;;;;;;4965737;28;20049;-67
2023/06/25 08:32:10;;;;;;;13.13;8.47;;;25.40;99.90;;;;;;5015264;28;20545;-68
2023/06/25 08:34:37;;;;;;;12.53;7.70;;;25.50;99.90;;;;;;5015573;28;20053;-67
2023/06/25 08:37:04;;;;;;;12.43;7.70;;;25.60;99.90;;;;;;5015300;28;20085;-67
2023/06/25 08:39:29;;;;;;;10.27;6.32;;;25.70;99.90;;;;;;4997859;28;20123;-67
2023/06/25 08:41:55;;;;;;;12.30;8.10;;;25.80;99.90;;;;;;4997849;28;20525;-67
2023/06/25 08:44:21;;;;;;;12.88;8.32;;;25.90;99.90;;;;;;5015581;28;20053;-69
2023/06/25 08:46:48;;;;;;;10.85;6.70;;;25.90;99.90;;;;;;4982040;28;20362;-67
2023/06/25 08:49:15;;;;;;;10.25;6.15;;;25.90;99.90;;;;;;5015018;28;20398;-67
2023/06/25 08:51:41;;;;;;;7.72;4.85;;;26.00;99.90;;;;;;4981645;28;20126;-67
2023/06/25 08:54:07;;;;;;;13.45;7.22;;;26.20;99.90;;;;;;4981289;28;20563;-67
2023/06/25 08:56:33;;;;;;;9.55;6.07;;;26.20;99.90;;;;;;5015102;28;20046;-67
2023/06/25 08:58:59;;;;;;;18.10;6.38;;;26.20;99.90;;;;;;5014988;28;20084;-67
2023/06/25 09:01:25;;;;;;;10.50;5.03;;;26.30;99.90;;;;;;4997761;28;20054;-67
2023/06/25 09:03:52;;;;;;;9.27;5.45;;;26.40;99.90;;;;;;4980874;28;20045;-68
2023/06/25 09:06:18;;;;;;;9.18;4.90;;;26.40;99.90;;;;;;5014779;28;20132;-68
2023/06/25 09:08:45;;;;;;;11.32;5.35;;;26.50;99.90;;;;;;5014684;28;20046;-68
2023/06/25 09:11:11;;;;;;;;;;;26.60;99.90;;;;;;4997645;28;20421;-67
2023/06/25 09:13:38;;;;;;;11.65;6.28;;;26.60;99.90;;;;;;5014615;28;19951;-67
2023/06/25 09:16:08;;;;;;;10.75;5.97;;;26.60;99.90;;;;;;5014532;28;20058;-69
2023/06/25 09:18:34;;;;;;;11.55;6.07;;;26.70;99.90;;;;;;4981856;28;20053;-68
2023/06/25 09:21:07;;;;;;;8.25;4.97;;;26.80;99.90;;;;;;4998084;28;20393;-67
2023/06/25 09:23:35;;;;;;;12.13;5.68;;;27.00;99.90;;;;;;4997013;28;20092;-68
2023/06/25 09:26:07;;;;;;;10.57;6.07;;;27.10;99.90;;;;;;4997280;28;20414;-68
2023/06/25 09:28:33;;;;;;;12.55;5.68;;;27.10;99.90;;;;;;5014174;28;20054;-67
2023/06/25 09:31:00;;;;;;;11.65;5.65;;;27.20;99.90;;;;;;4948370;28;20056;-67
2023/06/25 09:33:34;;;;;;;10.93;6.43;;;27.30;99.30;;;;;;4996988;28;20095;-67
2023/06/25 09:36:03;;;;;;;10.40;6.40;;;27.20;98.60;;;;;;5014314;28;20049;-68
2023/06/25 09:38:29;;;;;;;10.35;5.78;;;27.20;98.40;;;;;;4996589;28;20053;-67
2023/06/25 09:40:58;;;;;;;11.20;5.03;;;27.20;99.30;;;;;;4981543;28;20477;-66
2023/06/25 09:43:25;;;;;;;12.43;6.30;;;27.30;99.50;;;;;;5014232;28;20112;-66
2023/06/25 09:45:52;;;;;;;14.68;6.65;;;27.40;97.10;;;;;;4996830;28;20486;-67
2023/06/25 09:48:26;;;;;;;12.23;6.03;;;27.40;96.10;;;;;;5014507;28;20100;-68
2023/06/25 09:50:56;;;;;;;15.07;6.57;;;27.40;96.90;;;;;;5014202;28;20053;-67
2023/06/25 09:53:23;;;;;;;11.80;6.10;;;27.40;96.20;;;;;;5014403;28;20478;-68
2023/06/25 09:55:49;;;;;;;;;;;27.50;96.10;;;;;;4980927;28;20060;-68
2023/06/25 09:58:17;;;;;;;12.13;6.00;;;27.50;95.90;;;;;;4996191;28;19922;-67
2023/06/25 10:00:43;;;;;;;12.13;5.95;;;27.50;96.80;;;;;;4996397;28;20069;-67
2023/06/25 10:03:11;;;;;;;10.30;4.97;;;27.60;95.80;;;;;;4996416;28;20054;-70
2023/06/25 10:05:37;;;;;;;10.70;5.25;;;27.80;94.20;;;;;;5014082;28;20100;-67
2023/06/25 10:08:04;;;;;;;9.38;4.60;;;27.80;94.80;;;;;;5013822;28;20094;-67
2023/06/25 10:10:29;;;;;;;;;;;27.80;94.40;;;;;;5014990;28;20492;-66
2023/06/25 10:12:55;;;;;;;;;;;27.90;94.40;;;;;;4996939;28;20007;-66
2023/06/25 10:15:29;;;;;;;7.50;4.15;;;27.90;94.70;;;;;;5013739;28;20028;-67
2023/06/25 10:18:01;;;;;;;10.48;4.75;;;28.00;93.20;;;;;;4996041;28;20053;-69
2023/06/25 10:20:44;;;;;;;7.35;4.22;;;28.10;93.10;;;;;;4996117;28;20046;-68
2023/06/25 10:23:11;;;;;;;11.35;4.80;;;28.20;93.40;;;;;;4996817;28;20049;-67
2023/06/25 10:25:39;;;;;;;8.98;4.40;;;28.20;91.20;;;;;;4979976;28;20084;-67
2023/06/25 10:28:11;;;;;;;9.55;4.72;;;28.30;92.40;;;;;;4996095;28;20049;-67
2023/06/25 10:30:39;;;;;;;11.15;4.95;;;28.40;92.00;;;;;;5014209;28;20050;-66
2023/06/25 10:33:05;;;;;;;9.82;4.75;;;28.40;92.00;;;;;;4980327;28;20398;-66
2023/06/25 10:35:41;;;;;;;;;;;28.40;91.70;;;;;;5013773;28;20046;-67
2023/06/25 10:38:08;;;;;;;15.50;9.68;;;28.40;91.60;;;;;;5013572;28;19922;-67
2023/06/25 10:40:37;;;;;;;105.40;60.78;;;28.60;91.90;;;;;;4995819;28;20104;-67
2023/06/25 10:43:03;;;;;;;6.93;3.75;;;28.60;91.50;;;;;;4980551;28;20046;-67
2023/06/25 10:45:29;;;;;;;9.20;4.13;;;28.60;90.30;;;;;;4996274;28;20054;-66
2023/06/25 10:48:11;;;;;;;9.68;3.90;;;28.70;88.10;;;;;;4982262;28;20486;-66
2023/06/25 10:50:37;;;;;;;7.88;3.95;;;28.80;90.10;;;;;;4999719;28;20100;-66
2023/06/25 10:53:12;;;;;;;9.90;4.10;;;28.90;89.90;;;;;;4999855;28;20046;-67
2023/06/25 10:55:38;;;;;;;8.48;3.75;;;28.90;89.30;;;;;;4999782;28;20058;-67
2023/06/25 10:58:04;;;;;;;9.07;3.83;;;28.90;87.60;;;;;;4983533;28;20046;-67
2023/06/25 11:00:31;;;;;;;8.90;4.28;;;28.90;88.80;;;;;;5017220;28;20072;-66
2023/06/25 11:02:57;;;;;;;9.77;4.55;;;29.00;88.60;;;;;;4999688;28;20132;-66
2023/06/25 11:05:36;;;;;;;7.47;4.50;;;29.00;86.90;;;;;;5017938;28;20045;-68
2023/06/25 11:08:07;;;;;;;9.80;4.45;;;29.00;88.50;;;;;;4983378;28;20053;-67
2023/06/25 11:10:33;;;;;;;7.45;4.30;;;29.00;89.80;;;;;;4999766;28;20177;-67
2023/06/25 11:12:59;;;;;;;8.07;4.45;;;29.10;90.10;;;;;;4983576;28;20128;-67
2023/06/25 11:15:29;;;;;;;9.93;4.30;;;29.20;90.10;;;;;;5016892;28;20491;-67
2023/06/25 11:17:55;;;;;;;7.68;4.20;;;29.30;90.00;;;;;;4999977;28;20049;-67
2023/06/25 11:20:25;;;;;;;8.10;4.70;;;29.30;88.50;;;;;;4999657;28;20413;-69
2023/06/25 11:22:50;;;;;;;10.13;5.03;;;29.50;89.70;;;;;;4999196;28;20046;-67
2023/06/25 11:25:19;;;;;;;11.18;5.55;;;29.50;88.40;;;;;;4999294;28;20061;-68
2023/06/25 11:27:45;;;;;;;9.52;5.25;;;29.50;87.30;;;;;;5016756;28;20107;-66
2023/06/25 11:30:11;;;;;;;9.60;5.20;;;29.40;87.00;;;;;;4982796;28;20482;-68
2023/06/25 11:32:39;;;;;;;7.97;5.15;;;29.30;87.10;;;;;;4983413;28;20157;-66
2023/06/25 11:35:13;;;;;;;9.93;5.72;;;29.30;87.80;;;;;;4999309;28;20054;-68
2023/06/25 11:37:49;;;;;;;9.10;5.70;;;29.40;89.20;;;;;;4999489;28;20465;-68
2023/06/25 11:40:29;;;;;;;8.32;5.20;;;29.40;89.70;;;;;;4999836;28;20360;-67
2023/06/25 11:42:55;;;;;;;8.43;5.28;;;29.50;90.20;;;;;;5016185;28;20077;-67
2023/06/25 11:45:22;;;;;;;8.38;5.35;;;29.60;90.20;;;;;;4999811;28;20369;-66
2023/06/25 11:47:56;;;;;;;10.77;5.10;;;29.70;89.00;;;;;;4982862;28;20104;-67
2023/06/25 11:50:26;;;;;;;10.52;5.20;;;29.70;88.60;;;;;;4998968;28;20132;-67
2023/06/25 11:52:53;;;;;;;8.85;5.82;;;29.70;88.80;;;;;;5016260;28;20041;-67
2023/06/25 11:55:21;;;;;;;12.25;5.90;;;29.70;87.90;;;;;;4982434;28;20049;-67
2023/06/25 11:57:48;;;;;;;9.07;5.85;;;29.60;87.30;;;;;;4998571;28;20049;-68
2023/06/25 12:00:14;;;;;;;9.85;5.53;;;29.60;87.40;;;;;;5016595;28;20511;-66
2023/06/25 12:02:39;;;;;;;;;;;29.60;87.40;;;;;;5016424;28;20061;-66
2023/06/25 12:05:06;;;;;;;9.05;5.32;;;29.60;88.00;;;;;;4982484;28;19921;-67
2023/06/25 12:07:32;;;;;;;;;;;29.70;86.60;;;;;;5017077;28;20046;-66
2023/06/25 12:09:57;;;;;;;9.23;4.78;;;29.80;86.60;;;;;;5015810;28;20370;-67
2023/06/25 12:12:23;;;;;;;10.73;5.43;;;29.80;86.20;;;;;;4998355;28;20053;-67
2023/06/25 12:14:49;;;;;;;10.70;5.63;;;29.70;86.40;;;;;;4998267;28;20054;-67
2023/06/25 12:17:15;;;;;;;9.65;4.95;;;29.80;87.50;;;;;;5015625;28;20077;-67
2023/06/25 12:19:41;;;;;;;8.63;4.32;;;29.90;87.90;;;;;;4998530;28;20093;-66
2023/06/25 12:22:07;;;;;;;;;;;30.00;86.60;;;;;;4998777;28;20057;-68
2023/06/25 12:24:33;;;;;;;9.20;4.60;;;30.10;84.60;;;;;;4998016;28;19921;-67
2023/06/25 12:26:59;;;;;;;9.13;4.80;;;30.10;85.20;;;;;;5015422;28;20129;-70
2023/06/25 12:29:24;;;;;;;10.02;5.03;;;30.10;83.10;;;;;;4997345;28;20155;-70
2023/06/25 12:31:50;;;;;;;9.10;4.88;;;30.10;81.60;;;;;;4981816;28;20056;-68
2023/06/25 12:34:16;;;;;;;11.40;5.15;;;30.10;81.90;;;;;;4981691;28;20073;-68
2023/06/25 12:36:41;;;;;;;7.75;4.60;;;30.00;82.60;;;;;;5015326;28;20513;-67
2023/06/25 12:39:08;;;;;;;7.85;5.07;;;30.00;83.20;;;;;;4981492;28;20046;-66